createdAt,value
2018-09-25T00:05:17.990Z,5.93
2018-09-25T00:15:27.016Z,7.23
2018-09-25T00:25:36.181Z,4.07
2018-09-25T01:07:33.899Z,5.13
2018-09-25T01:17:42.776Z,7.57
2018-09-25T01:27:51.973Z,5.40
2018-09-25T01:38:01.088Z,6.67
2018-09-25T01:48:10.060Z,5.40
2018-09-25T01:58:18.897Z,11.40
2018-09-25T02:08:27.778Z,4.27
2018-09-25T02:18:38.113Z,8.67
2018-09-25T02:28:47.143Z,6.07
2018-09-25T02:38:56.090Z,5.80
2018-09-25T02:49:05.428Z,7.47
2018-09-25T02:59:14.406Z,5.73
2018-09-25T03:09:27.792Z,6.58
2018-09-25T03:19:39.898Z,7.63
2018-09-25T03:29:52.558Z,8.27
2018-09-25T03:40:02.332Z,7.60
2018-09-25T03:50:11.978Z,7.45
2018-09-25T04:00:21.150Z,6.23
2018-09-25T04:10:29.973Z,6.73
2018-09-25T04:20:40.054Z,7.20
2018-09-25T04:30:48.926Z,6.40
2018-09-25T04:40:57.787Z,5.73
2018-09-25T04:51:06.764Z,6.40
2018-09-25T05:01:15.937Z,5.00
2018-09-25T05:11:25.241Z,6.93
2018-09-25T05:21:34.114Z,8.60
2018-09-25T05:31:43.097Z,7.73
2018-09-25T05:41:52.134Z,7.97
2018-09-25T05:52:01.013Z,10.70
2018-09-25T06:02:36.030Z,9.03
2018-09-25T06:13:00.723Z,10.50
2018-09-25T06:34:12.202Z,10.20
2018-09-25T06:55:33.769Z,11.03
2018-09-25T07:06:10.220Z,13.10
2018-09-25T07:16:47.468Z,12.79
2018-09-25T07:26:58.484Z,11.83
2018-09-25T07:37:09.735Z,10.47
2018-09-25T07:47:19.770Z,9.80
2018-09-25T07:57:29.891Z,9.53
2018-09-25T08:07:41.058Z,9.63
2018-09-25T08:17:50.375Z,10.53
2018-09-25T08:28:07.486Z,11.03
2018-09-25T08:38:17.583Z,10.70
2018-09-25T08:48:27.886Z,8.40
2018-09-25T09:09:34.892Z,7.53
2018-09-25T09:19:44.022Z,7.90
2018-09-25T09:29:52.973Z,8.60
2018-09-25T09:40:02.416Z,6.57
2018-09-25T09:50:11.385Z,3.37
2018-09-25T10:00:20.200Z,4.47
2018-09-25T10:10:48.851Z,4.35
2018-09-25T10:21:00.375Z,6.10
2018-09-25T11:04:01.897Z,7.50
2018-09-25T11:14:32.629Z,4.27
2018-09-25T11:36:03.380Z,5.10
2018-09-25T12:18:35.437Z,8.75
2018-09-25T12:50:13.699Z,3.98
2018-09-25T13:33:04.970Z,4.90
2018-09-25T14:05:06.260Z,5.67
2018-09-25T14:15:34.307Z,5.63
2018-09-25T14:26:05.588Z,3.37
2018-09-25T14:58:05.161Z,3.63
2018-09-25T15:19:11.433Z,4.33
2018-09-25T15:29:21.210Z,4.90
2018-09-25T15:39:50.466Z,2.71
2018-09-25T15:50:27.709Z,3.00
2018-09-25T16:00:36.649Z,6.33
2018-09-25T16:10:45.728Z,6.83
2018-09-25T16:20:54.661Z,5.30
2018-09-25T16:31:04.792Z,5.20
2018-09-25T16:41:14.452Z,6.50
2018-09-25T16:51:23.305Z,4.55
2018-09-25T17:01:32.225Z,3.35
2018-09-25T17:11:41.119Z,8.50
2018-09-25T17:21:50.161Z,7.27
2018-09-25T17:31:59.306Z,6.97
2018-09-25T17:42:14.006Z,7.17
2018-09-25T17:52:22.967Z,6.03
2018-09-25T18:02:35.857Z,5.53
2018-09-25T18:12:44.895Z,6.95
2018-09-25T18:22:53.855Z,8.37
2018-09-25T18:33:02.843Z,10.57
2018-09-25T18:43:11.950Z,9.87
2018-09-25T18:53:24.942Z,9.28
2018-09-25T19:14:33.781Z,12.76
2018-09-25T19:24:42.924Z,10.30
2018-09-25T19:35:04.221Z,13.90
2018-09-25T19:45:25.177Z,9.43
2018-09-25T19:55:51.550Z,8.83
2018-09-25T20:06:21.321Z,12.47
2018-09-25T20:16:30.130Z,8.67
2018-09-25T20:26:39.025Z,12.00
2018-09-25T20:37:09.099Z,14.70
2018-09-25T20:47:41.992Z,12.70
2018-09-25T20:57:51.007Z,13.30
2018-09-25T21:07:59.918Z,10.23
2018-09-25T21:18:08.827Z,11.07
2018-09-25T21:28:17.971Z,8.57
2018-09-25T21:38:32.322Z,9.50
2018-09-25T21:48:52.776Z,10.90
2018-09-25T21:59:08.137Z,8.83
2018-09-25T22:09:22.480Z,10.60
2018-09-25T22:19:37.080Z,8.53
2018-09-25T22:29:51.547Z,8.03
2018-09-25T22:40:12.687Z,10.27
2018-09-25T22:50:27.136Z,6.87
2018-09-25T23:00:41.330Z,6.57
2018-09-25T23:11:09.188Z,8.60
2018-09-25T23:21:23.521Z,7.37
2018-09-25T23:31:38.549Z,8.53
2018-09-25T23:41:59.019Z,6.27
2018-09-25T23:52:12.899Z,8.77
